MDT,Max TemperatureF,Mean TemperatureF,Min TemperatureF,Max Dew PointF,MeanDew PointF,Min DewpointF,Max Humidity, Mean Humidity, Min Humidity, Max Sea Level PressureIn, Mean Sea Level PressureIn, Min Sea Level PressureIn, Max VisibilityMiles, Mean VisibilityMiles, Min VisibilityMiles, Max Wind SpeedMPH, Mean Wind SpeedMPH, Max Gust SpeedMPH,PrecipitationIn, CloudCover, Events, WindDirDegrees
2013-4-1,84,69,53,31,19,6,41,24,6,29.89,29.79,29.70,10,10,10,24,7,29,0.00,2,,227
2013-4-2,82,67,52,23,15,5,24,15,6,29.78,29.70,29.57,10,10,10,31,12,38,0.00,3,,263
2013-4-3,73,59,44,37,29,7,65,38,11,29.99,29.91,29.77,10,10,10,15,4,17,0.00,1,,102
2013-4-4,79,62,45,30,22,12,49,29,8,30.12,29.99,29.92,10,10,10,14,4,17,0.00,3,,103
2013-4-5,86,73,59,25,14,6,22,14,5,29.94,29.81,29.68,10,10,10,26,11,33,0.00,5,,224
2013-4-6,83,72,60,26,21,14,22,15,7,29.83,29.75,29.66,10,10,10,28,11,40,0.00,2,,266
2013-4-7,84,72,60,24,20,16,20,14,8,29.76,29.66,29.57,10,10,10,26,14,36,0.00,1,,256
2013-4-8,86,76,65,27,18,9,22,14,6,29.60,29.47,29.29,10,8,2,37,18,46,0.00,1,,237
2013-4-9,70,61,52,35,25,15,50,33,15,29.77,29.56,29.30,10,7,2,44,20,56,T,5,Rain,266
2013-4-10,67,57,47,28,22,14,46,30,13,29.90,29.79,29.73,10,10,10,29,15,37,0.00,2,,267
2013-4-11,73,58,42,21,16,12,37,23,9,29.85,29.77,29.66,10,10,10,23,8,26,0.00,1,,249
2013-4-12,80,65,49,22,14,11,22,15,8,29.77,29.69,29.62,10,10,10,16,6,24,0.00,4,,1
2013-4-13,82,70,57,19,16,12,21,14,7,29.82,29.62,29.52,10,10,10,23,11,30,0.00,3,,317
2013-4-14,83,73,62,24,19,15,20,15,9,29.65,29.57,29.49,10,10,10,37,20,48,0.00,1,,253
2013-4-15,85,74,62,28,19,11,26,16,6,29.69,29.62,29.54,10,10,10,32,19,38,0.00,0,,247
2013-4-16,87,75,63,25,16,7,19,12,5,29.71,29.63,29.55,10,10,9,30,16,37,0.00,1,,249
2013-4-17,83,68,52,25,16,8,22,14,6,29.80,29.62,29.48,10,7,1,43,22,56,0.00,1,,256
2013-4-18,66,56,46,21,10,-10,34,20,5,30.07,29.91,29.79,10,10,10,24,12,30,0.00,1,,335
2013-4-19,68,52,36,1,-3,-11,19,12,5,30.20,30.07,29.93,10,10,10,16,8,22,0.00,0,,21
2013-4-20,81,61,41,6,0,-9,19,11,3,29.93,29.82,29.69,10,10,9,35,12,39,0.00,1,,241
2013-4-21,83,66,49,15,9,4,14,10,5,29.96,29.87,29.78,10,10,10,22,7,28,0.00,0,,277
2013-4-22,89,73,57,12,8,3,15,10,4,29.86,29.75,29.63,10,10,10,24,11,32,0.00,0,,231
2013-4-23,88,71,54,25,11,4,28,16,4,29.93,29.70,29.59,10,9,2,32,13,40,0.00,2,,236
2013-4-24,75,59,42,28,25,21,49,31,13,30.09,29.98,29.89,10,10,10,18,7,25,0.00,1,,106
2013-4-25,85,70,54,38,26,6,38,22,6,29.98,29.86,29.72,10,10,3,30,10,39,0.00,4,,135
2013-4-26,84,71,58,19,10,2,19,12,5,29.97,29.91,29.83,10,10,10,22,8,25,0.00,0,,298
2013-4-27,85,69,53,25,15,6,27,17,6,30.01,29.91,29.81,10,10,10,13,4,17,0.00,0,,49
2013-4-28,86,71,56,37,23,16,25,17,8,29.87,29.78,29.69,10,10,10,16,4,18,0.00,1,,123
2013-4-29,91,75,59,41,18,0,43,23,3,29.85,29.66,29.56,10,10,10,20,8,24,0.00,0,,208
2013-4-30,93,79,65,14,9,4,10,7,4,29.64,29.57,29.53,10,10,10,26,13,36,0.00,1,,262